Time;durP1;ratioP1;P1;durP2;ratioP2;P2;SDS_P1;SDS_P2;PMS_P1;PMS_P2;Temp;Humidity;BMP_temperature;BMP_pressure;BME280_temperature;BME280_humidity;BME280_pressure;Samples;Min_cycle;Max_cycle;Signal;HPM_P1;HPM_P2
2022/03/14 00:02:26;;;;;;;1.92;1.05;;;;;;;10.23;70.39;101526.75;4971463;28;20043;-92
2022/03/14 00:04:51;;;;;;;2.10;1.02;;;;;;;10.11;70.61;101510.72;4984328;28;20483;-91
2022/03/14 00:07:16;;;;;;;2.08;1.10;;;;;;;10.12;70.46;101522.25;4992330;28;20022;-91
2022/03/14 00:09:52;;;;;;;2.57;1.10;;;;;;;10.19;70.67;101530.16;5004181;28;20072;-91
2022/03/14 00:12:23;;;;;;;3.65;1.00;;;;;;;10.07;70.72;101522.16;4995204;28;20034;-92
2022/03/14 00:14:53;;;;;;;1.57;1.03;;;;;;;10.04;70.96;101526.13;4992411;28;20026;-90
2022/03/14 00:17:22;;;;;;;2.50;1.10;;;;;;;10.03;71.15;101529.00;4991305;28;20289;-91
2022/03/14 00:19:47;;;;;;;1.67;1.10;;;;;;;10.01;71.14;101531.94;5003748;28;20034;-91
2022/03/14 00:22:22;;;;;;;1.83;1.25;;;;;;;10.04;70.94;101544.88;5012249;28;20075;-90
2022/03/14 00:24:59;;;;;;;1.53;1.20;;;;;;;10.05;71.16;101548.34;5011425;28;20052;-91
2022/03/14 00:27:30;;;;;;;1.73;1.20;;;;;;;9.97;71.43;101536.13;5010322;28;20631;-90
2022/03/14 00:30:14;;;;;;;3.55;1.23;;;;;;;10.02;71.37;101559.53;4994170;28;20654;-92
2022/03/14 00:32:52;;;;;;;2.75;1.50;;;;;;;9.94;71.71;101553.50;5010845;28;20040;-91
2022/03/14 00:35:21;;;;;;;2.55;1.42;;;;;;;9.98;71.54;101565.34;5010397;28;20041;-92
2022/03/14 00:37:46;;;;;;;1.58;1.27;;;;;;;9.92;71.69;101557.44;5011825;28;20033;-92
2022/03/14 00:40:14;;;;;;;2.13;1.30;;;;;;;9.89;71.97;101558.72;5010759;28;20481;-91
2022/03/14 00:42:40;;;;;;;2.25;1.60;;;;;;;9.88;72.39;101566.97;5002302;28;20480;-92
2022/03/14 00:45:14;;;;;;;2.00;1.60;;;;;;;9.87;72.21;101568.03;4992155;28;20030;-91
2022/03/14 00:47:46;;;;;;;2.47;1.70;;;;;;;9.85;72.45;101569.09;5009674;23;20347;-91
2022/03/14 00:50:14;;;;;;;1.92;1.45;;;;;;;9.84;72.52;101580.03;4998280;28;20521;-91
2022/03/14 00:52:40;;;;;;;1.73;1.30;;;;;;;9.90;72.38;101581.78;5011801;28;20052;-92
2022/03/14 00:55:08;;;;;;;3.10;1.30;;;;;;;9.89;72.87;101585.50;5011758;28;20461;-90
2022/03/14 00:57:33;;;;;;;2.50;1.50;;;;;;;9.81;72.59;101575.97;5001382;28;20113;-90
2022/03/14 01:00:12;;;;;;;1.77;1.50;;;;;;;9.88;73.14;101588.41;5002918;28;20460;-89
2022/03/14 01:02:38;;;;;;;2.20;1.40;;;;;;;9.83;73.00;101586.44;4999775;28;20053;-89
2022/03/14 01:05:29;;;;;;;2.30;1.60;;;;;;;9.82;72.97;101587.47;5010347;28;20288;-90
2022/03/14 01:08:08;;;;;;;2.25;1.70;;;;;;;9.87;74.02;101609.00;5011560;28;20081;-90
2022/03/14 01:10:33;;;;;;;2.87;1.60;;;;;;;9.78;74.51;101597.84;5009277;28;20057;-90
2022/03/14 01:13:10;;;;;;;2.40;1.60;;;;;;;9.79;74.68;101612.84;5001737;28;20393;-91
2022/03/14 01:15:46;;;;;;;3.55;1.60;;;;;;;9.72;74.52;101601.44;4994037;28;20114;-91
2022/03/14 01:18:15;;;;;;;2.13;1.70;;;;;;;9.74;75.15;101610.06;5007668;28;20026;-91
2022/03/14 01:20:46;;;;;;;2.40;1.67;;;;;;;9.70;75.02;101606.22;5026202;28;20030;-89
2022/03/14 01:23:21;;;;;;;2.22;1.75;;;;;;;9.63;75.01;101602.84;4992350;28;20049;-91
2022/03/14 01:25:55;;;;;;;2.10;1.55;;;;;;;9.67;75.02;101620.09;5005625;28;20109;-89
2022/03/14 01:28:21;;;;;;;2.38;1.67;;;;;;;9.63;75.40;101617.03;5003907;28;20061;-91
2022/03/14 01:30:46;;;;;;;2.40;2.20;;;;;;;9.61;75.52;101621.78;5014212;28;20030;-91
2022/03/14 01:33:20;;;;;;;2.23;1.70;;;;;;;9.65;75.18;101627.53;5012729;28;20485;-91
2022/03/14 01:35:46;;;;;;;2.50;1.80;;;;;;;9.64;75.29;101631.25;5010705;28;20161;-91
2022/03/14 01:38:11;;;;;;;2.40;1.67;;;;;;;9.51;75.82;101617.03;5007862;28;20584;-92
2022/03/14 01:40:36;;;;;;;2.33;1.87;;;;;;;9.60;75.61;101636.22;5084412;23;20005;-90
2022/03/14 01:43:16;;;;;;;3.63;1.90;;;;;;;9.59;75.76;101628.44;4992883;28;20034;-91
2022/03/14 01:45:58;;;;;;;2.60;1.90;;;;;;;9.53;75.44;101619.47;5001213;23;20024;-90
2022/03/14 01:48:30;;;;;;;2.13;1.80;;;;;;;9.53;75.90;101630.19;5018117;28;20026;-91
2022/03/14 01:50:55;;;;;;;2.67;1.90;;;;;;;9.48;76.16;101622.84;5013832;28;20088;-92
2022/03/14 01:53:36;;;;;;;2.20;2.00;;;;;;;9.49;76.28;101623.66;5013724;28;20381;-91
2022/03/14 01:56:14;;;;;;;2.42;1.75;;;;;;;9.50;76.05;101634.13;5006791;28;20136;-91
2022/03/14 01:58:41;;;;;;;2.50;1.73;;;;;;;9.50;76.25;101634.13;5005963;28;20030;-90
2022/03/14 02:01:15;;;;;;;2.97;2.00;;;;;;;9.61;76.24;101650.44;4991862;28;20297;-91
2022/03/14 02:03:41;;;;;;;2.30;1.80;;;;;;;9.53;76.31;101640.88;5038576;23;20037;-90
2022/03/14 02:06:08;;;;;;;2.40;1.95;;;;;;;9.64;76.44;101660.69;5022487;28;20614;-91
2022/03/14 02:08:37;;;;;;;2.45;2.00;;;;;;;9.54;76.23;101645.19;5004096;28;20061;-89
2022/03/14 02:11:02;;;;;;;3.03;2.10;;;;;;;9.59;76.24;101650.66;5011110;28;20067;-91
2022/03/14 02:13:28;;;;;;;3.43;2.20;;;;;;;9.58;76.32;101649.03;5011356;28;20689;-91
2022/03/14 02:15:57;;;;;;;2.63;2.10;;;;;;;9.60;76.11;101651.47;5010514;28;20097;-91
2022/03/14 02:18:31;;;;;;;3.13;2.03;;;;;;;9.68;76.47;101665.34;5010710;28;20621;-91
2022/03/14 02:20:59;;;;;;;2.70;2.10;;;;;;;9.59;76.72;101657.88;5011207;28;20790;-91
2022/03/14 02:23:30;;;;;;;2.20;1.63;;;;;;;9.59;76.68;101660.56;5010224;28;20052;-91
2022/03/14 02:25:59;;;;;;;2.40;2.08;;;;;;;9.63;76.68;101664.41;5011064;28;20034;-90
2022/03/14 02:28:24;;;;;;;3.65;2.20;;;;;;;9.64;77.02;101668.72;4992165;28;20048;-90
2022/03/14 02:30:50;;;;;;;2.45;1.98;;;;;;;9.60;76.74;101660.31;4992838;28;20045;-90
2022/03/14 02:33:16;;;;;;;2.40;2.00;;;;;;;9.69;77.19;101671.50;5010968;28;20100;-91
2022/03/14 02:35:42;;;;;;;3.75;2.38;;;;;;;9.58;77.50;101662.41;5010683;28;20025;-91
2022/03/14 02:38:11;;;;;;;2.80;2.10;;;;;;;9.65;76.91;101675.69;4992538;28;20145;-90
2022/03/14 02:40:39;;;;;;;2.80;2.20;;;;;;;9.55;77.51;101673.59;5009217;28;20434;-91
2022/03/14 02:43:07;;;;;;;2.92;1.92;;;;;;;9.55;77.52;101670.91;4992831;28;20061;-90
2022/03/14 02:45:39;;;;;;;2.55;1.92;;;;;;;9.59;77.20;101682.75;5010047;28;20022;-91
2022/03/14 02:48:04;;;;;;;2.55;2.00;;;;;;;9.62;77.13;101684.19;5010127;28;20026;-91
2022/03/14 02:50:30;;;;;;;3.20;2.07;;;;;;;9.60;77.48;101694.28;5010680;28;20025;-91
2022/03/14 02:52:56;;;;;;;2.45;2.22;;;;;;;9.45;77.75;101682.16;5011037;28;20504;-91
2022/03/14 02:55:23;;;;;;;4.57;2.38;;;;;;;9.53;77.73;101699.75;4993808;28;20030;-91
2022/03/14 02:57:48;;;;;;;2.53;2.13;;;;;;;9.45;77.97;101700.06;5016272;28;20038;-91
2022/03/14 03:00:14;;;;;;;3.30;2.33;;;;;;;9.42;78.30;101705.88;5029599;28;20014;-92
2022/03/14 03:03:02;;;;;;;3.22;2.67;;;;;;;9.39;78.43;101716.00;5037239;28;20029;-91
2022/03/14 03:05:31;;;;;;;3.83;1.80;;;;;;;9.37;78.21;101709.22;5036022;28;20033;-90
2022/03/14 03:08:01;;;;;;;2.60;2.30;;;;;;;9.29;78.31;101699.66;5026437;28;20280;-90
2022/03/14 03:10:28;;;;;;;3.22;2.10;;;;;;;9.26;78.69;101708.16;5013957;28;20026;-91
2022/03/14 03:12:54;;;;;;;2.90;1.90;;;;;;;9.26;78.73;101715.38;5014041;28;20028;-90
2022/03/14 03:15:19;;;;;;;2.42;2.17;;;;;;;9.24;79.04;101729.78;4993171;28;20034;-90
2022/03/14 03:17:45;;;;;;;2.60;2.20;;;;;;;9.29;78.95;101749.69;5013163;28;20109;-90
2022/03/14 03:20:14;;;;;;;5.85;2.30;;;;;;;9.25;78.98;101733.25;5013507;28;20037;-91
2022/03/14 03:22:42;;;;;;;2.30;2.10;;;;;;;9.24;79.10;101745.00;5013347;28;20142;-91
2022/03/14 03:25:14;;;;;;;2.85;2.20;;;;;;;9.17;78.67;101744.28;4994512;28;20121;-91
2022/03/14 03:27:40;;;;;;;3.50;1.70;;;;;;;9.25;79.02;101770.69;4996638;28;20500;-91
2022/03/14 03:30:10;;;;;;;2.30;2.00;;;;;;;9.18;79.12;101768.13;5012695;28;20281;-90
2022/03/14 03:32:56;;;;;;;2.70;2.20;;;;;;;9.12;79.73;101766.34;5013196;28;20034;-91
2022/03/14 03:35:27;;;;;;;2.60;2.17;;;;;;;9.06;81.62;101780.63;5012530;28;20469;-88
2022/03/14 03:37:56;;;;;;;3.30;2.43;;;;;;;8.97;83.17;101776.59;5010295;28;20317;-91
2022/03/14 03:40:28;;;;;;;3.42;2.42;;;;;;;8.81;84.49;101781.50;4995822;28;20022;-91
2022/03/14 03:42:54;;;;;;;3.85;2.40;;;;;;;8.62;86.22;101786.81;4995747;28;20042;-92
2022/03/14 03:45:38;;;;;;;2.72;2.40;;;;;;;8.61;85.79;101801.22;5013473;28;20052;-92
2022/03/14 03:48:15;;;;;;;3.28;2.97;;;;;;;8.50;86.08;101793.94;4972245;28;20045;-90
2022/03/14 03:50:42;;;;;;;3.22;2.80;;;;;;;8.58;86.48;101806.19;4988139;28;20468;-89
2022/03/14 03:53:07;;;;;;;3.88;2.70;;;;;;;8.60;86.32;101814.81;5011604;28;20404;-89
2022/03/14 03:55:34;;;;;;;3.20;2.90;;;;;;;8.64;86.22;101819.50;5013287;28;20109;-89
2022/03/14 03:57:59;;;;;;;2.97;2.67;;;;;;;8.62;86.13;101823.44;5010941;28;20424;-88
2022/03/14 04:00:25;;;;;;;3.33;2.70;;;;;;;8.69;86.35;101828.72;5009724;28;20044;-90
2022/03/14 04:03:02;;;;;;;4.65;2.90;;;;;;;8.63;86.78;101833.88;5011559;28;20040;-92
2022/03/14 04:05:30;;;;;;;5.43;3.03;;;;;;;8.62;86.81;101840.25;4994857;28;20485;-93
2022/03/14 04:07:58;;;;;;;5.33;3.20;;;;;;;8.53;87.60;101828.25;5013153;28;20030;-92
2022/03/14 04:13:45;;;;;;;3.63;2.97;;;;;;;8.56;87.87;101859.03;4974528;28;20033;-93
2022/03/14 04:16:17;;;;;;;3.95;3.13;;;;;;;8.49;88.45;101848.41;4989098;28;20578;-92
2022/03/14 04:21:40;;;;;;;4.28;2.97;;;;;;;8.49;88.84;101872.44;4931691;29;20515;-90
2022/03/14 04:24:57;;;;;;;5.53;3.00;;;;;;;8.45;87.72;101865.88;4932521;29;20063;-91
2022/03/14 04:27:52;;;;;;;3.63;3.20;;;;;;;8.40;88.92;101863.06;4912023;29;20423;-91
2022/03/14 04:30:24;;;;;;;5.93;3.30;;;;;;;8.41;89.47;101865.50;4868592;29;20077;-92
2022/03/14 04:33:00;;;;;;;4.15;3.75;;;;;;;8.42;89.95;101876.97;4887966;29;20045;-90
2022/03/14 04:35:47;;;;;;;6.20;4.05;;;;;;;8.41;90.30;101889.53;4893878;29;20067;-91
2022/03/14 04:38:16;;;;;;;5.68;4.28;;;;;;;8.33;90.57;101879.94;4921406;29;20048;-93
2022/03/14 04:40:41;;;;;;;5.28;3.92;;;;;;;8.32;90.53;101898.81;4990610;28;20041;-94
2022/03/14 04:43:09;;;;;;;6.67;3.80;;;;;;;8.27;90.68;101898.69;4988830;28;20030;-93
2022/03/14 04:45:53;;;;;;;5.20;4.50;;;;;;;8.17;90.95;101896.47;5006018;28;20030;-92
2022/03/14 04:48:23;;;;;;;5.60;4.95;;;;;;;8.12;91.15;101893.63;4994810;28;20095;-93
2022/03/14 04:50:51;;;;;;;6.20;4.30;;;;;;;8.09;91.05;101896.72;5012397;28;20030;-94
2022/03/14 04:53:20;;;;;;;6.85;4.43;;;;;;;8.11;90.89;101902.66;5011102;28;20018;-91
2022/03/14 04:55:56;;;;;;;6.70;4.50;;;;;;;7.97;91.31;101905.41;5010816;28;20044;-91
2022/03/14 04:58:39;;;;;;;5.82;4.57;;;;;;;7.96;90.94;101914.47;5012018;28;20026;-91
2022/03/14 05:01:21;;;;;;;6.50;4.53;;;;;;;7.85;91.48;101912.47;5012703;28;20033;-91
2022/03/14 05:07:17;;;;;;;8.75;5.25;;;;;;;7.79;91.95;101932.78;5148549;23;20056;-91
2022/03/14 05:09:59;;;;;;;6.13;4.70;;;;;;;7.79;91.46;101940.81;5012161;28;20089;-89
2022/03/14 05:12:48;;;;;;;7.10;4.95;;;;;;;7.79;92.44;101948.00;4991879;28;20030;-90
2022/03/14 05:19:16;;;;;;;11.55;5.47;;;;;;;7.93;92.08;101965.59;4947432;29;20057;-90
2022/03/14 05:22:22;;;;;;;11.52;5.70;;;;;;;7.95;91.84;101970.69;4950748;29;20051;-88
2022/03/14 05:33:02;;;;;;;10.27;6.37;;;;;;;7.92;91.25;101969.28;4957852;28;20389;-87
2022/03/14 05:35:27;;;;;;;8.60;5.85;;;;;;;8.03;91.51;101997.97;5004241;23;20532;-90
2022/03/14 05:37:55;;;;;;;8.27;6.10;;;;;;;8.03;90.95;101997.16;5009435;28;20057;-88
2022/03/14 05:40:21;;;;;;;11.60;6.67;;;;;;;7.95;91.16;101987.56;4986725;28;20049;-88
2022/03/14 05:42:50;;;;;;;11.60;7.20;;;;;;;8.07;91.11;102013.56;4986721;28;20313;-90
2022/03/14 05:51:42;;;;;;;16.47;6.97;;;;;;;7.96;90.15;102015.06;4911624;29;20281;-89
2022/03/14 05:54:10;;;;;;;12.40;8.02;;;;;;;7.92;90.45;102017.34;5007851;28;20031;-90
2022/03/14 05:56:38;;;;;;;13.18;8.25;;;;;;;7.91;90.99;102026.38;5001357;28;20018;-90
2022/03/14 05:59:07;;;;;;;12.73;7.22;;;;;;;7.98;90.33;102031.69;5010407;28;20026;-91
2022/03/14 06:01:37;;;;;;;12.32;7.57;;;;;;;7.96;90.65;102034.56;5004524;28;20069;-89
2022/03/14 06:07:29;;;;;;;12.75;7.97;;;;;;;8.01;90.64;102050.78;5464758;23;20428;-90
2022/03/14 06:09:55;;;;;;;17.15;8.15;;;;;;;7.92;91.45;102043.22;4993675;28;20030;-89
2022/03/14 06:12:24;;;;;;;14.17;8.93;;;;;;;7.97;91.54;102051.38;4989687;28;20037;-88
2022/03/14 06:15:00;;;;;;;16.45;8.60;;;;;;;8.05;91.12;102064.53;4986617;28;20053;-88
2022/03/14 06:17:26;;;;;;;14.18;8.43;;;;;;;8.10;91.13;102070.06;4954022;28;20049;-88
2022/03/14 06:19:51;;;;;;;13.27;9.00;;;;;;;8.14;90.94;102067.78;4972154;28;20405;-86
2022/03/14 06:22:18;;;;;;;13.47;8.87;;;;;;;8.15;90.64;102069.41;4970754;28;20321;-88
2022/03/14 06:24:46;;;;;;;15.27;9.48;;;;;;;8.17;90.53;102070.03;4952194;28;20102;-88
2022/03/14 06:27:18;;;;;;;19.92;9.77;;;;;;;8.21;90.64;102076.59;4970507;28;20022;-87
2022/03/14 06:29:46;;;;;;;16.45;9.40;;;;;;;8.22;90.28;102080.88;4969864;28;20664;-87
2022/03/14 06:32:15;;;;;;;17.47;9.50;;;;;;;8.29;90.06;102102.25;4971418;28;20030;-86
2022/03/14 06:34:47;;;;;;;20.90;9.90;;;;;;;8.30;89.90;102096.69;4919801;28;20298;-87
2022/03/14 06:37:18;;;;;;;18.17;11.15;;;;;;;8.26;90.11;102083.97;4971582;28;20035;-87
2022/03/14 06:39:55;;;;;;;21.42;10.35;;;;;;;8.31;89.79;102098.31;4973888;28;20477;-86
2022/03/14 06:42:21;;;;;;;21.35;10.52;;;;;;;8.30;89.52;102098.53;4975117;28;20030;-87
2022/03/14 06:44:49;;;;;;;19.27;9.50;;;;;;;8.36;89.08;102103.03;4974651;28;20208;-86
2022/03/14 06:47:15;;;;;;;15.38;9.15;;;;;;;8.37;89.37;102104.66;4973957;28;20356;-86
2022/03/14 06:49:42;;;;;;;19.10;10.27;;;;;;;8.32;89.35;102107.97;4975013;28;20038;-87
2022/03/14 06:52:38;;;;;;;18.00;10.15;;;;;;;8.33;89.34;102114.13;4966670;28;20486;-86
2022/03/14 06:55:11;;;;;;;17.60;9.75;;;;;;;8.21;88.95;102095.28;4975052;28;20050;-85
2022/03/14 06:57:38;;;;;;;18.98;9.77;;;;;;;8.26;89.40;102113.34;5064378;23;20522;-85
2022/03/14 07:00:04;;;;;;;18.02;10.02;;;;;;;8.33;89.26;102124.81;4968506;28;20031;-87
2022/03/14 07:02:50;;;;;;;15.77;9.70;;;;;;;8.37;89.13;102125.22;4973953;28;20038;-85
2022/03/14 07:05:24;;;;;;;17.60;9.60;;;;;;;8.34;88.79;102121.09;4966115;28;20043;-86
2022/03/14 07:07:50;;;;;;;18.00;9.27;;;;;;;8.49;88.56;102134.25;4964009;28;20118;-87
2022/03/14 07:10:19;;;;;;;18.47;9.90;;;;;;;8.57;88.62;102134.00;4979110;28;20336;-86
2022/03/14 07:12:49;;;;;;;15.45;9.75;;;;;;;8.66;88.27;102141.78;4962181;28;20034;-86
2022/03/14 07:15:21;;;;;;;18.23;9.98;;;;;;;8.70;87.86;102143.00;4954233;28;20042;-86
2022/03/14 07:17:47;;;;;;;18.20;9.13;;;;;;;8.79;87.34;102139.88;4950498;28;20039;-85
2022/03/14 07:20:13;;;;;;;16.10;9.88;;;;;;;8.85;87.01;102148.88;4954532;29;20489;-86
2022/03/14 07:22:56;;;;;;;16.92;9.10;;;;;;;8.91;86.42;102149.88;4955091;28;20039;-86
2022/03/14 07:25:32;;;;;;;19.33;9.75;;;;;;;8.95;86.43;102145.75;4954583;28;20039;-86
2022/03/14 07:28:03;;;;;;;16.07;9.23;;;;;;;9.03;85.83;102150.84;4955465;28;20027;-86
2022/03/14 07:30:28;;;;;;;18.93;9.53;;;;;;;9.10;85.54;102153.47;4954886;28;20282;-87
2022/03/14 07:32:54;;;;;;;17.83;9.63;;;;;;;9.15;84.88;102150.97;4954516;28;20561;-86
2022/03/14 07:35:20;;;;;;;19.50;9.40;;;;;;;9.18;84.54;102153.22;4954245;28;20479;-86
2022/03/14 07:37:47;;;;;;;17.80;9.75;;;;;;;9.27;84.55;102164.47;4954452;29;20368;-87
2022/03/14 07:40:13;;;;;;;19.60;9.60;;;;;;;9.34;83.94;102159.06;4954727;28;20086;-86
2022/03/14 07:42:43;;;;;;;16.25;9.13;;;;;;;9.42;83.61;102164.16;4954702;29;20031;-87
2022/03/14 07:45:14;;;;;;;16.67;9.52;;;;;;;9.48;83.21;102157.13;4972989;28;20139;-86
2022/03/14 07:47:39;;;;;;;15.20;9.18;;;;;;;9.50;83.54;102166.56;4954207;28;20082;-86
2022/03/14 07:50:06;;;;;;;17.07;9.23;;;;;;;9.54;82.67;102172.31;4955487;28;20035;-87
2022/03/14 07:52:32;;;;;;;18.42;9.70;;;;;;;9.60;82.32;102167.94;4958888;28;20046;-86
2022/03/14 07:54:57;;;;;;;17.23;9.30;;;;;;;9.68;82.04;102175.69;4965365;28;20059;-86
2022/03/14 07:57:22;;;;;;;16.77;9.60;;;;;;;9.76;81.92;102178.09;4956997;28;20038;-86
2022/03/14 07:59:53;;;;;;;17.10;9.53;;;;;;;9.83;81.14;102178.88;4963025;28;20469;-87
2022/03/14 08:02:25;;;;;;;18.55;9.60;;;;;;;9.90;80.85;102196.72;4954263;28;20038;-86
2022/03/14 08:04:50;;;;;;;18.98;10.38;;;;;;;9.92;80.66;102198.16;4954423;28;20028;-87
2022/03/14 08:07:18;;;;;;;18.63;9.87;;;;;;;9.92;80.92;102197.31;4964931;28;20037;-87
2022/03/14 08:09:43;;;;;;;17.95;9.75;;;;;;;9.93;80.26;102199.78;4974022;28;20030;-87
2022/03/14 08:12:12;;;;;;;20.83;10.52;;;;;;;9.94;80.34;102193.41;4962203;28;20027;-86
2022/03/14 08:14:37;;;;;;;19.95;10.27;;;;;;;10.01;79.87;102220.13;4954300;28;20125;-88
2022/03/14 08:17:02;;;;;;;17.00;10.37;;;;;;;10.00;79.95;102211.25;4953761;28;20479;-88
2022/03/14 08:19:28;;;;;;;22.60;10.23;;;;;;;9.96;80.15;102218.06;4953883;28;20028;-87
2022/03/14 08:21:56;;;;;;;17.10;10.50;;;;;;;9.96;79.84;102225.31;4957058;28;20027;-87
2022/03/14 08:24:22;;;;;;;19.05;9.88;;;;;;;9.92;80.06;102229.44;4958956;28;20078;-89
2022/03/14 08:26:51;;;;;;;16.63;10.43;;;;;;;9.88;80.33;102236.28;4957212;28;20031;-87
2022/03/14 08:29:17;;;;;;;20.27;10.23;;;;;;;9.85;80.73;102234.88;4960590;29;20043;-86
2022/03/14 08:31:43;;;;;;;21.45;10.98;;;;;;;9.84;80.68;102242.09;4960934;28;20536;-86
2022/03/14 08:34:08;;;;;;;17.45;10.27;;;;;;;9.88;80.38;102239.78;4953840;28;20087;-87
2022/03/14 08:36:35;;;;;;;15.97;10.07;;;;;;;9.90;80.45;102239.56;4953235;28;20031;-87
2022/03/14 08:39:03;;;;;;;20.08;9.93;;;;;;;9.97;80.58;102251.03;4953970;29;20031;-87
2022/03/14 08:41:29;;;;;;;17.35;10.13;;;;;;;10.10;79.99;102250.94;4952396;28;20102;-88
2022/03/14 08:43:54;;;;;;;18.13;9.85;;;;;;;10.19;79.28;102253.34;4953229;28;20110;-87
2022/03/14 08:46:20;;;;;;;17.77;9.60;;;;;;;10.36;79.02;102264.28;4952843;28;20027;-88
2022/03/14 08:48:55;;;;;;;18.73;10.05;;;;;;;10.43;78.27;102257.06;4952914;28;20047;-89
2022/03/14 08:51:34;;;;;;;20.73;9.77;;;;;;;10.49;77.78;102250.81;4953745;28;20027;-88
2022/03/14 08:56:26;;;;;;;17.30;9.38;;;;;;;10.91;76.17;102274.28;4998206;23;20446;-88
2022/03/14 08:58:54;;;;;;;17.20;9.17;;;;;;;10.96;74.76;102263.66;4992355;28;20022;-88
2022/03/14 09:01:19;;;;;;;15.30;7.93;;;;;;;11.09;74.35;102264.56;4991098;28;20030;-88
2022/03/14 09:03:44;;;;;;;13.20;7.77;;;;;;;11.35;73.91;102285.66;4992006;28;20121;-87
2022/03/14 09:06:10;;;;;;;15.88;7.70;;;;;;;11.47;73.30;102282.22;4972792;28;20018;-87
2022/03/14 09:08:35;;;;;;;15.87;8.47;;;;;;;11.60;72.18;102291.94;4971118;28;20125;-88
2022/03/14 09:11:02;;;;;;;15.60;7.90;;;;;;;11.67;72.48;102292.66;4971694;28;20019;-87
2022/03/14 09:13:28;;;;;;;13.60;7.65;;;;;;;11.71;71.97;102295.72;4971699;28;20027;-87
2022/03/14 09:15:54;;;;;;;11.77;7.00;;;;;;;11.66;72.13;102307.13;4972258;28;20031;-88
2022/03/14 09:18:21;;;;;;;16.30;7.38;;;;;;;11.52;71.17;102318.06;4969141;28;20033;-87
2022/03/14 09:20:52;;;;;;;16.30;7.20;;;;;;;11.58;72.56;102313.66;4970961;28;20030;-87
2022/03/14 09:23:19;;;;;;;15.50;7.38;;;;;;;11.76;71.25;102320.00;4971754;28;20114;-86
2022/03/14 09:25:45;;;;;;;16.70;6.72;;;;;;;11.95;70.24;102318.09;4971605;28;20042;-87
2022/03/14 09:28:14;;;;;;;17.07;6.73;;;;;;;12.11;70.16;102327.38;4970627;28;20386;-87
2022/03/14 09:30:39;;;;;;;12.60;6.32;;;;;;;12.23;68.91;102325.50;4951566;28;20027;-87
2022/03/14 09:33:07;;;;;;;12.07;6.40;;;;;;;12.44;68.60;102330.56;4971510;28;20494;-87
2022/03/14 09:35:39;;;;;;;12.67;6.20;;;;;;;12.59;68.25;102330.91;4971228;28;20035;-86
2022/03/14 09:38:05;;;;;;;13.30;6.55;;;;;;;12.74;67.71;102335.81;4971232;28;20022;-87
2022/03/14 09:40:31;;;;;;;15.05;6.80;;;;;;;13.07;67.40;102338.91;4954552;28;20030;-87
2022/03/14 09:42:59;;;;;;;16.60;6.45;;;;;;;13.39;66.15;102346.56;4971213;28;20113;-87
2022/03/14 09:45:26;;;;;;;13.30;5.75;;;;;;;13.80;64.41;102346.50;4972375;28;20109;-87
2022/03/14 09:47:56;;;;;;;12.20;5.20;;;;;;;13.83;62.08;102343.34;4956879;28;20081;-86
2022/03/14 09:50:34;;;;;;;10.00;5.53;;;;;;;13.70;62.68;102356.03;4989226;28;20290;-86
2022/03/14 09:53:04;;;;;;;11.55;5.35;;;;;;;13.34;62.64;102366.09;4991582;28;20031;-85
2022/03/14 09:55:32;;;;;;;10.35;5.45;;;;;;;13.13;63.22;102370.25;4990319;28;20174;-85
2022/03/14 09:57:59;;;;;;;11.55;5.93;;;;;;;12.79;64.47;102381.63;4971845;28;20031;-86
2022/03/14 10:00:54;;;;;;;15.45;6.32;;;;;;;12.90;66.41;102382.69;4971774;28;20031;-86
2022/03/14 10:03:22;;;;;;;14.07;6.28;;;;;;;12.98;64.46;102385.03;4970078;28;20049;-86
2022/03/14 10:05:47;;;;;;;11.32;5.45;;;;;;;13.17;64.63;102383.00;4954222;28;20533;-86
2022/03/14 10:08:13;;;;;;;12.37;6.03;;;;;;;13.23;63.92;102389.31;4952025;28;20026;-84
2022/03/14 10:10:39;;;;;;;9.48;5.07;;;;;;;13.27;63.74;102395.03;4971345;28;20058;-85
2022/03/14 10:13:11;;;;;;;9.65;5.20;;;;;;;13.25;64.22;102395.25;4973203;28;20031;-85
2022/03/14 10:15:40;;;;;;;17.52;5.57;;;;;;;13.21;63.56;102402.19;4975170;28;20111;-85
2022/03/14 10:18:10;;;;;;;11.65;5.70;;;;;;;13.01;64.34;102394.47;4972353;28;20159;-84
2022/03/14 10:20:36;;;;;;;10.47;5.93;;;;;;;13.06;64.21;102391.91;4982049;28;20474;-84
2022/03/14 10:23:02;;;;;;;10.97;5.80;;;;;;;13.30;63.29;102391.88;4994185;28;20343;-85
2022/03/14 10:25:28;;;;;;;13.32;5.93;;;;;;;13.43;62.72;102402.41;4994678;28;20062;-84
2022/03/14 10:27:57;;;;;;;12.45;5.70;;;;;;;13.60;62.22;102402.44;4974321;28;20031;-85
2022/03/14 10:30:31;;;;;;;13.50;6.27;;;;;;;13.91;62.33;102418.38;4972657;28;20199;-84
2022/03/14 10:33:01;;;;;;;11.40;5.50;;;;;;;14.04;60.29;102412.72;4974119;28;20834;-85
2022/03/14 10:35:31;;;;;;;12.13;5.10;;;;;;;14.09;60.02;102425.44;4975344;28;20031;-85
2022/03/14 10:37:59;;;;;;;9.77;5.68;;;;;;;14.17;60.53;102416.94;4973616;28;20023;-85
2022/03/14 10:40:41;;;;;;;10.70;5.13;;;;;;;14.03;60.76;102423.72;4974682;28;20446;-85
2022/03/14 10:43:20;;;;;;;14.50;5.55;;;;;;;13.84;60.64;102434.69;4974480;28;20038;-85
2022/03/14 10:45:46;;;;;;;12.00;5.20;;;;;;;13.96;60.11;102436.53;4974413;28;20027;-85
2022/03/14 10:48:12;;;;;;;9.82;4.63;;;;;;;14.28;59.96;102439.50;4973997;28;20408;-85
2022/03/14 10:50:39;;;;;;;9.80;4.72;;;;;;;14.66;59.03;102442.56;4975143;28;20038;-84
2022/03/14 10:53:19;;;;;;;9.18;5.10;;;;;;;14.87;58.25;102442.91;4974480;28;20045;-85
2022/03/14 10:55:58;;;;;;;8.07;4.93;;;;;;;14.83;56.77;102450.66;4966846;28;20042;-86
2022/03/14 10:58:37;;;;;;;10.00;4.83;;;;;;;14.72;57.84;102436.19;4974327;28;20286;-85
2022/03/14 11:01:07;;;;;;;10.98;4.72;;;;;;;14.58;57.07;102442.97;4973896;28;20505;-86
2022/03/14 11:04:05;;;;;;;9.07;5.20;;;;;;;14.51;58.04;102435.88;4974239;28;20696;-85
2022/03/14 11:06:36;;;;;;;9.95;4.72;;;;;;;14.48;57.06;102449.00;4954572;28;20098;-85
2022/03/14 11:09:07;;;;;;;7.13;4.93;;;;;;;14.23;57.48;102440.25;4955697;28;20032;-85
2022/03/14 11:11:39;;;;;;;10.18;4.10;;;;;;;13.91;58.76;102448.00;4954991;28;20044;-85
2022/03/14 11:14:12;;;;;;;7.38;4.60;;;;;;;13.62;59.61;102446.13;4953807;28;20457;-84
2022/03/14 11:16:38;;;;;;;11.07;4.68;;;;;;;13.37;59.30;102451.78;4965119;28;20076;-85
2022/03/14 11:19:04;;;;;;;8.90;4.13;;;;;;;13.23;60.89;102455.78;4972169;28;20039;-85
2022/03/14 11:21:32;;;;;;;9.93;4.43;;;;;;;13.03;60.41;102440.81;4974017;28;20039;-85
2022/03/14 11:24:00;;;;;;;7.47;4.35;;;;;;;13.07;61.43;102446.53;4994834;23;20113;-86
2022/03/14 11:28:59;;;;;;;8.40;4.27;;;;;;;12.92;61.12;102438.97;5000275;23;20410;-84
2022/03/14 11:31:34;;;;;;;8.20;4.30;;;;;;;12.99;60.81;102456.63;4975224;28;20305;-85
2022/03/14 11:34:05;;;;;;;7.65;3.85;;;;;;;12.80;60.58;102431.69;4988832;28;20038;-85
2022/03/14 11:36:41;;;;;;;7.38;3.50;;;;;;;13.08;60.61;102448.19;4973798;28;20422;-85
2022/03/14 11:39:13;;;;;;;10.63;3.78;;;;;;;13.29;59.90;102444.06;4973694;28;20030;-84
2022/03/14 11:41:42;;;;;;;9.48;3.45;;;;;;;13.69;56.90;102446.00;4973769;28;20056;-85
2022/03/14 11:44:08;;;;;;;6.28;3.10;;;;;;;14.16;55.72;102442.28;4985197;23;20042;-85
2022/03/14 11:46:35;;;;;;;4.28;2.47;;;;;;;14.76;55.00;102455.44;4984683;28;20506;-85
2022/03/14 11:49:34;;;;;;;5.32;2.50;;;;;;;15.07;54.22;102458.56;4987709;28;20041;-85
2022/03/14 11:52:42;;;;;;;4.00;2.17;;;;;;;15.69;52.69;102465.59;4992329;28;20061;-84
2022/03/14 11:55:29;;;;;;;6.00;2.20;;;;;;;16.19;51.23;102476.41;4960521;28;20293;-85
2022/03/14 11:57:56;;;;;;;6.57;2.25;;;;;;;16.28;48.81;102477.59;4992556;28;20366;-85
2022/03/14 12:00:36;;;;;;;6.00;2.88;;;;;;;16.34;48.89;102473.84;4992487;28;20030;-85
2022/03/14 12:03:07;;;;;;;6.32;2.40;;;;;;;16.18;49.04;102489.13;4976423;28;20038;-84
2022/03/14 12:05:38;;;;;;;7.05;2.85;;;;;;;15.90;49.00;102487.47;4977214;28;20026;-85
2022/03/14 12:08:32;;;;;;;5.55;2.92;;;;;;;15.73;49.54;102482.09;5010711;28;20058;-84
2022/03/14 12:11:37;;;;;;;7.07;2.88;;;;;;;15.73;50.59;102490.22;5008675;28;20037;-85
2022/03/14 12:14:18;;;;;;;6.47;3.22;;;;;;;15.93;49.67;102483.44;5002169;28;20502;-86
2022/03/14 12:16:49;;;;;;;7.80;3.10;;;;;;;15.87;49.03;102475.28;4997869;23;20039;-85
2022/03/14 12:19:46;;;;;;;7.30;2.83;;;;;;;15.78;50.30;102474.06;4993254;28;20028;-86
2022/03/14 12:22:16;;;;;;;6.43;2.87;;;;;;;15.75;50.27;102490.78;4993209;28;20290;-85